Time;durP1;ratioP1;P1;durP2;ratioP2;P2;SDS_P1;SDS_P2;PMS_P1;PMS_P2;Temp;Humidity;BMP_temperature;BMP_pressure;BME280_temperature;BME280_humidity;BME280_pressure;Samples;Min_cycle;Max_cycle;Signal;HPM_P1;HPM_P2
2022/07/06 00:00:43;;;;;;;5.38;0.98;;;11.90;99.90;;;;;;5037354;28;20481;-75
2022/07/06 00:03:08;;;;;;;3.80;0.80;;;12.00;99.90;;;;;;5041418;28;20083;-75
2022/07/06 00:05:34;;;;;;;4.40;1.00;;;12.00;99.90;;;;;;5043233;28;20108;-75
2022/07/06 00:07:59;;;;;;;2.55;0.77;;;12.00;99.90;;;;;;5037047;28;20037;-75
2022/07/06 00:10:25;;;;;;;4.07;0.80;;;12.00;99.90;;;;;;5030234;28;20705;-75
2022/07/06 00:12:50;;;;;;;5.85;0.82;;;12.00;99.90;;;;;;5033514;28;20045;-75
2022/07/06 00:15:16;;;;;;;1.90;0.60;;;12.00;99.90;;;;;;5040964;28;20052;-75
2022/07/06 00:17:41;;;;;;;3.80;0.90;;;12.00;99.90;;;;;;5042397;28;20029;-75
2022/07/06 00:20:07;;;;;;;3.05;0.70;;;12.00;99.90;;;;;;5039953;28;20052;-75
2022/07/06 00:22:33;;;;;;;2.42;0.85;;;12.00;99.90;;;;;;5039503;28;20025;-75
2022/07/06 00:24:58;;;;;;;3.50;0.82;;;12.00;99.90;;;;;;5041257;28;20128;-74
2022/07/06 00:27:24;;;;;;;1.80;0.70;;;12.00;99.90;;;;;;5040429;28;20400;-75
2022/07/06 00:29:49;;;;;;;3.15;0.47;;;11.90;99.90;;;;;;5040156;28;20481;-75
2022/07/06 00:32:15;;;;;;;2.40;0.60;;;11.90;99.90;;;;;;5034294;28;20036;-74
2022/07/06 00:34:40;;;;;;;3.55;0.75;;;12.00;99.90;;;;;;5041601;28;20378;-75
2022/07/06 00:37:06;;;;;;;6.38;2.13;;;11.90;99.90;;;;;;5037824;28;20502;-74
2022/07/06 00:39:33;;;;;;;2.00;0.68;;;11.90;99.90;;;;;;5037248;28;20110;-75
2022/07/06 00:41:59;;;;;;;3.60;0.80;;;11.80;99.90;;;;;;5042578;28;20518;-75
2022/07/06 00:44:24;;;;;;;5.57;0.93;;;11.80;99.90;;;;;;5040305;28;20029;-75
2022/07/06 00:46:50;;;;;;;3.90;0.85;;;11.80;99.90;;;;;;5037269;28;20384;-76
2022/07/06 00:52:01;;;;;;;3.75;0.75;;;11.70;99.90;;;;;;5043380;28;20178;-75
2022/07/06 00:54:30;;;;;;;4.43;0.85;;;11.60;99.90;;;;;;5039091;28;20479;-75
2022/07/06 00:56:56;;;;;;;3.92;0.88;;;11.60;99.90;;;;;;5042781;28;20036;-75
2022/07/06 00:59:23;;;;;;;3.45;0.80;;;11.60;99.90;;;;;;5034814;28;20029;-75
2022/07/06 01:01:48;;;;;;;3.83;1.20;;;11.60;99.90;;;;;;5041861;28;20515;-75
2022/07/06 01:04:14;;;;;;;7.25;1.83;;;11.50;99.90;;;;;;5037334;28;20116;-75
2022/07/06 01:06:40;;;;;;;3.58;1.05;;;11.50;99.90;;;;;;5037080;28;20515;-75
2022/07/06 01:09:06;;;;;;;5.18;1.20;;;11.50;99.90;;;;;;5041744;28;20029;-75
2022/07/06 01:11:31;;;;;;;2.88;0.70;;;11.40;99.90;;;;;;5045357;28;20041;-75
2022/07/06 01:13:59;;;;;;;5.13;1.20;;;11.40;99.90;;;;;;5034653;28;20559;-75
2022/07/06 01:16:25;;;;;;;4.97;1.33;;;11.30;99.90;;;;;;5040511;28;20037;-74
2022/07/06 01:18:50;;;;;;;4.47;1.27;;;11.30;99.90;;;;;;5038898;28;20151;-75
2022/07/06 01:21:16;;;;;;;2.40;1.00;;;11.30;99.90;;;;;;5035147;28;20034;-75
2022/07/06 01:23:43;;;;;;;3.90;1.27;;;11.20;99.90;;;;;;5033703;28;20052;-75
2022/07/06 01:26:14;;;;;;;3.70;1.20;;;11.20;99.90;;;;;;5042289;28;20041;-75
2022/07/06 01:28:40;;;;;;;3.90;1.30;;;11.20;99.90;;;;;;5040289;28;20028;-75
2022/07/06 01:31:13;;;;;;;3.90;0.82;;;11.10;99.90;;;;;;5037181;28;20033;-76
2022/07/06 01:33:38;;;;;;;3.90;1.05;;;11.10;99.90;;;;;;5039615;28;20037;-75
2022/07/06 01:36:04;;;;;;;3.53;1.00;;;11.00;99.90;;;;;;5034029;28;20370;-75
2022/07/06 01:38:29;;;;;;;5.13;0.80;;;11.00;99.90;;;;;;5034183;28;20045;-75
2022/07/06 01:40:55;;;;;;;6.28;0.98;;;11.00;99.90;;;;;;5035773;28;20056;-75
2022/07/06 01:43:20;;;;;;;2.72;1.10;;;10.90;99.90;;;;;;5038793;28;20492;-75
2022/07/06 01:45:46;;;;;;;5.32;1.38;;;10.80;99.90;;;;;;5040841;28;20025;-75
2022/07/06 01:48:12;;;;;;;4.25;1.65;;;10.80;99.90;;;;;;5038930;28;20160;-75
2022/07/06 01:50:37;;;;;;;2.33;1.10;;;10.70;99.90;;;;;;5036658;28;20503;-74
2022/07/06 01:53:03;;;;;;;4.68;1.25;;;10.70;99.90;;;;;;5037147;28;20029;-74
2022/07/06 01:55:28;;;;;;;3.70;1.48;;;10.70;99.90;;;;;;5038470;28;20048;-75
2022/07/06 01:57:54;;;;;;;3.80;1.70;;;10.60;99.90;;;;;;5032281;28;20083;-74
2022/07/06 02:00:19;;;;;;;3.45;1.10;;;10.70;99.90;;;;;;5033164;28;20025;-74
2022/07/06 02:02:45;;;;;;;3.63;1.10;;;10.60;99.90;;;;;;5031004;28;20097;-75
2022/07/06 02:05:10;;;;;;;6.30;1.83;;;10.60;99.90;;;;;;5037316;28;20432;-74
2022/07/06 02:07:36;;;;;;;4.47;1.55;;;10.50;99.90;;;;;;5035985;28;20431;-75
2022/07/06 02:10:02;;;;;;;5.55;1.50;;;10.50;99.90;;;;;;5037816;28;20045;-74
2022/07/06 02:12:27;;;;;;;4.25;1.25;;;10.50;99.90;;;;;;5040696;28;20474;-74
2022/07/06 02:14:53;;;;;;;4.78;1.35;;;10.50;99.90;;;;;;5031643;28;20022;-74
2022/07/06 02:17:18;;;;;;;5.25;1.67;;;10.50;99.90;;;;;;5037904;28;20029;-75
2022/07/06 02:19:44;;;;;;;3.42;1.60;;;10.40;99.90;;;;;;5035582;28;20060;-74
2022/07/06 02:22:09;;;;;;;3.95;1.45;;;10.40;99.90;;;;;;5040321;28;20104;-75
2022/07/06 02:24:35;;;;;;;4.63;1.55;;;10.40;99.90;;;;;;5036743;28;20388;-75
2022/07/06 02:27:00;;;;;;;5.40;1.50;;;10.40;99.90;;;;;;5042287;28;20037;-74
2022/07/06 02:29:26;;;;;;;3.50;1.23;;;10.40;99.90;;;;;;5034347;28;20029;-74
2022/07/06 02:31:51;;;;;;;3.97;1.23;;;10.40;99.90;;;;;;5036368;28;20029;-74
2022/07/06 02:34:17;;;;;;;5.22;1.13;;;10.40;99.90;;;;;;5034435;28;20056;-75
2022/07/06 02:36:42;;;;;;;4.72;1.52;;;10.30;99.90;;;;;;5035662;28;20076;-75
2022/07/06 02:39:08;;;;;;;4.18;1.40;;;10.30;99.90;;;;;;5037656;28;20040;-75
2022/07/06 02:41:33;;;;;;;2.83;1.25;;;10.30;99.90;;;;;;5037129;28;20068;-75
2022/07/06 02:43:59;;;;;;;5.00;1.42;;;10.30;99.90;;;;;;5034552;28;20037;-74
2022/07/06 02:46:24;;;;;;;4.63;1.23;;;10.30;99.90;;;;;;5039131;28;20028;-74
2022/07/06 02:48:50;;;;;;;7.75;1.00;;;10.30;99.90;;;;;;5039039;28;20428;-75
2022/07/06 02:51:15;;;;;;;5.10;1.65;;;10.30;99.90;;;;;;5037904;28;20151;-74
2022/07/06 02:53:41;;;;;;;5.70;1.40;;;10.20;99.90;;;;;;5032180;28;20381;-74
2022/07/06 02:56:06;;;;;;;4.03;1.25;;;10.20;99.90;;;;;;5038100;28;20021;-75
2022/07/06 02:58:32;;;;;;;2.28;1.10;;;10.10;99.90;;;;;;5039632;28;20032;-75
2022/07/06 03:00:57;;;;;;;4.18;1.40;;;10.10;99.90;;;;;;5036289;28;20492;-75
2022/07/06 03:03:23;;;;;;;4.00;1.65;;;10.10;99.90;;;;;;5037000;28;20516;-75
2022/07/06 03:05:48;;;;;;;3.42;1.38;;;10.10;99.90;;;;;;5033134;28;20093;-76
2022/07/06 03:08:14;;;;;;;3.35;1.77;;;10.10;99.90;;;;;;5032615;28;20033;-75
2022/07/06 03:10:40;;;;;;;4.05;1.80;;;10.00;99.90;;;;;;5038193;28;20072;-74
2022/07/06 03:13:05;;;;;;;2.67;1.52;;;10.10;99.90;;;;;;5034996;28;20025;-75
2022/07/06 03:15:31;;;;;;;5.72;1.80;;;10.00;99.90;;;;;;5035561;28;20033;-75
2022/07/06 03:17:56;;;;;;;6.60;2.20;;;10.00;99.90;;;;;;5036149;28;20032;-75
2022/07/06 03:20:21;;;;;;;4.72;1.50;;;10.10;99.90;;;;;;5038966;28;20028;-75
2022/07/06 03:22:47;;;;;;;5.32;2.45;;;10.00;99.90;;;;;;5043723;28;20389;-75
2022/07/06 03:25:13;;;;;;;3.65;2.08;;;10.10;99.90;;;;;;5043239;28;20044;-75
2022/07/06 03:27:38;;;;;;;4.70;2.15;;;10.10;99.90;;;;;;5042858;28;20041;-75
2022/07/06 03:30:05;;;;;;;4.30;1.77;;;10.20;99.90;;;;;;5041936;28;20048;-75
2022/07/06 03:32:31;;;;;;;4.00;2.03;;;10.20;99.90;;;;;;5040711;28;20029;-75
2022/07/06 03:34:57;;;;;;;6.32;2.58;;;10.20;99.90;;;;;;5041000;28;20380;-74
2022/07/06 03:37:22;;;;;;;6.75;2.58;;;10.40;99.90;;;;;;5044107;28;20052;-75
2022/07/06 03:39:48;;;;;;;7.15;2.15;;;10.40;99.90;;;;;;5038387;28;20488;-75
2022/07/06 03:42:13;;;;;;;7.82;2.28;;;10.50;99.90;;;;;;5039005;28;20017;-75
2022/07/06 03:44:39;;;;;;;6.72;2.20;;;10.70;99.90;;;;;;5040393;28;20021;-74
2022/07/06 03:47:04;;;;;;;4.75;2.75;;;10.80;99.90;;;;;;5036461;28;20024;-75
2022/07/06 03:49:30;;;;;;;5.88;2.42;;;10.90;99.90;;;;;;5040103;28;20534;-75
2022/07/06 03:51:56;;;;;;;5.97;2.53;;;11.00;99.90;;;;;;5037502;28;20031;-75
2022/07/06 03:54:21;;;;;;;6.38;3.28;;;11.10;99.90;;;;;;5034946;28;20045;-74
2022/07/06 03:56:47;;;;;;;6.75;2.40;;;11.20;99.90;;;;;;5038576;28;20022;-74
2022/07/06 03:59:13;;;;;;;3.88;1.98;;;11.30;99.90;;;;;;5042744;28;20358;-74
2022/07/06 04:01:39;;;;;;;2.92;2.00;;;11.40;99.90;;;;;;5046059;28;20032;-74
2022/07/06 04:04:05;;;;;;;7.25;2.33;;;11.50;99.90;;;;;;5038725;28;20024;-75
2022/07/06 04:06:30;;;;;;;5.63;2.50;;;11.60;99.90;;;;;;5038296;28;20033;-75
2022/07/06 04:08:56;;;;;;;8.80;2.63;;;11.70;99.90;;;;;;5041254;28;20025;-74
2022/07/06 04:11:21;;;;;;;5.25;2.60;;;11.80;99.90;;;;;;5038774;28;20069;-74
2022/07/06 04:13:47;;;;;;;6.32;2.15;;;11.90;99.90;;;;;;5041267;28;20033;-74
2022/07/06 04:16:12;;;;;;;4.57;2.25;;;11.90;99.90;;;;;;5033327;28;20392;-74
2022/07/06 04:18:38;;;;;;;4.15;1.77;;;12.00;99.90;;;;;;5038835;28;20453;-74
2022/07/06 04:21:03;;;;;;;4.45;2.35;;;12.10;99.90;;;;;;5039646;28;20037;-74
2022/07/06 04:23:29;;;;;;;3.65;1.95;;;12.10;99.90;;;;;;5040120;28;20031;-75
2022/07/06 04:25:55;;;;;;;4.03;2.45;;;12.20;99.90;;;;;;5043276;28;20025;-74
2022/07/06 04:28:20;;;;;;;5.32;2.67;;;12.30;99.90;;;;;;5042197;28;20495;-75
2022/07/06 04:30:46;;;;;;;5.07;2.85;;;12.30;99.90;;;;;;5038969;28;20086;-75
2022/07/06 04:33:11;;;;;;;7.90;2.10;;;12.40;99.90;;;;;;5039622;28;20026;-74
2022/07/06 04:35:37;;;;;;;4.70;2.30;;;12.50;99.90;;;;;;5042050;28;20057;-76
2022/07/06 04:38:02;;;;;;;8.10;2.65;;;12.50;99.90;;;;;;5039407;28;20072;-75
2022/07/06 04:40:28;;;;;;;5.55;2.42;;;12.50;99.90;;;;;;5046274;28;20120;-75
2022/07/06 04:42:53;;;;;;;5.55;2.20;;;12.60;99.90;;;;;;5042595;28;20037;-74
2022/07/06 04:45:19;;;;;;;3.40;1.58;;;12.80;99.90;;;;;;5039486;28;20373;-74
2022/07/06 04:47:44;;;;;;;5.43;2.05;;;12.80;99.90;;;;;;5037066;28;20449;-74
2022/07/06 04:50:11;;;;;;;4.65;1.75;;;12.90;99.90;;;;;;5038728;28;20046;-74
2022/07/06 04:52:37;;;;;;;6.22;2.22;;;13.00;99.90;;;;;;5038326;28;20100;-74
2022/07/06 04:55:05;;;;;;;3.50;1.70;;;13.10;99.90;;;;;;5043250;28;20109;-75
2022/07/06 04:57:32;;;;;;;4.32;1.50;;;13.30;99.90;;;;;;5040588;28;20044;-74
2022/07/06 04:59:58;;;;;;;6.60;1.23;;;13.50;99.90;;;;;;5034231;28;20108;-74
2022/07/06 05:02:23;;;;;;;6.07;1.30;;;13.90;99.90;;;;;;5040532;28;20120;-74
2022/07/06 05:04:49;;;;;;;4.38;0.80;;;14.30;99.90;;;;;;5040060;28;20017;-75
2022/07/06 05:07:15;;;;;;;3.80;1.02;;;14.90;99.90;;;;;;5036320;28;20033;-74
2022/07/06 05:09:41;;;;;;;3.15;0.70;;;15.30;99.90;;;;;;5041100;28;20028;-75
2022/07/06 05:12:07;;;;;;;6.28;1.20;;;15.80;99.90;;;;;;5044716;28;20041;-75
2022/07/06 05:14:33;;;;;;;4.15;0.68;;;16.20;99.90;;;;;;5041965;28;20032;-75
2022/07/06 05:16:58;;;;;;;2.67;0.50;;;16.60;99.90;;;;;;5039903;28;20029;-75
2022/07/06 05:19:24;;;;;;;1.80;0.50;;;16.90;99.90;;;;;;5036652;28;20468;-75
2022/07/06 05:21:49;;;;;;;1.75;0.57;;;17.00;99.90;;;;;;5043003;28;20116;-74
2022/07/06 05:24:18;;;;;;;2.50;0.57;;;17.20;99.90;;;;;;5038908;28;20973;-74
2022/07/06 05:26:44;;;;;;;3.50;0.40;;;17.50;99.90;;;;;;5032770;28;20045;-73
2022/07/06 05:29:10;;;;;;;1.67;0.60;;;17.70;99.90;;;;;;5027739;28;22908;-73
2022/07/06 05:31:35;;;;;;;3.25;0.60;;;17.90;99.90;;;;;;5036763;28;20044;-73
2022/07/06 05:34:01;;;;;;;6.63;1.13;;;18.10;99.90;;;;;;5037175;28;20112;-73
2022/07/06 05:36:27;;;;;;;2.42;0.40;;;18.30;99.90;;;;;;5035060;28;20125;-73
2022/07/06 05:38:52;;;;;;;1.40;0.30;;;18.50;99.90;;;;;;5034652;28;20053;-73
2022/07/06 05:41:18;;;;;;;1.92;0.40;;;18.60;99.90;;;;;;5031969;28;20041;-74
2022/07/06 05:43:43;;;;;;;1.38;0.43;;;18.60;99.90;;;;;;5043740;28;20540;-73
2022/07/06 05:46:09;;;;;;;2.30;0.45;;;18.40;99.90;;;;;;5040003;28;20116;-74
2022/07/06 05:51:19;;;;;;;2.75;0.40;;;17.90;99.90;;;;;;5042929;28;20047;-74
2022/07/06 05:53:44;;;;;;;2.95;0.50;;;17.70;99.90;;;;;;5035060;28;20533;-74
2022/07/06 05:56:10;;;;;;;5.00;0.57;;;17.40;99.90;;;;;;5031990;28;20025;-74
2022/07/06 05:58:35;;;;;;;2.92;0.40;;;17.30;99.90;;;;;;5032265;28;20481;-74
2022/07/06 06:01:01;;;;;;;4.20;0.60;;;17.30;99.90;;;;;;5050354;28;20029;-74
2022/07/06 06:03:27;;;;;;;4.25;0.40;;;17.40;99.90;;;;;;5039309;28;20069;-72
2022/07/06 06:05:52;;;;;;;1.70;0.47;;;17.60;99.90;;;;;;5048548;28;20028;-73
2022/07/06 06:08:18;;;;;;;4.28;0.38;;;17.80;99.90;;;;;;5036616;28;20021;-74
2022/07/06 06:10:43;;;;;;;4.60;0.30;;;18.00;99.90;;;;;;5039720;28;20044;-74
2022/07/06 06:13:09;;;;;;;3.15;0.20;;;18.00;99.90;;;;;;5048182;28;20029;-74
2022/07/06 06:15:35;;;;;;;1.88;0.40;;;17.90;99.90;;;;;;5052042;28;20032;-74
2022/07/06 06:18:01;;;;;;;2.50;0.22;;;17.80;99.90;;;;;;5045669;28;20464;-73
2022/07/06 06:20:26;;;;;;;3.20;0.50;;;17.60;99.90;;;;;;5043882;28;20461;-74
2022/07/06 06:22:54;;;;;;;5.32;0.68;;;17.50;99.90;;;;;;5040796;28;20108;-74
2022/07/06 06:25:27;;;;;;;2.53;0.30;;;17.40;99.90;;;;;;5031235;28;20038;-74
2022/07/06 06:27:52;;;;;;;1.60;0.22;;;17.40;99.90;;;;;;5036787;28;20033;-74
2022/07/06 06:30:18;;;;;;;2.53;0.30;;;17.40;99.90;;;;;;5037335;28;20044;-74
2022/07/06 06:32:44;;;;;;;8.90;0.50;;;17.40;99.90;;;;;;5039549;28;20039;-73
2022/07/06 06:35:10;;;;;;;3.15;0.40;;;17.20;99.90;;;;;;5040017;28;20033;-74
2022/07/06 06:37:36;;;;;;;3.13;0.40;;;17.20;99.90;;;;;;5039342;28;20125;-74
2022/07/06 06:40:02;;;;;;;2.45;0.47;;;17.20;99.90;;;;;;5046081;28;20029;-73
2022/07/06 06:42:28;;;;;;;3.05;0.60;;;17.20;99.90;;;;;;5036447;28;20064;-73
2022/07/06 06:44:53;;;;;;;1.80;0.60;;;17.10;99.90;;;;;;5036916;28;20470;-74
2022/07/06 06:47:20;;;;;;;1.60;0.38;;;17.00;99.90;;;;;;5031918;28;20477;-73
2022/07/06 06:49:45;;;;;;;3.38;0.60;;;17.00;99.90;;;;;;5031431;28;20045;-74
2022/07/06 06:52:11;;;;;;;2.50;0.60;;;16.90;99.90;;;;;;5039646;28;20060;-73
2022/07/06 06:54:36;;;;;;;1.45;0.30;;;16.90;99.90;;;;;;5035469;28;20025;-74
2022/07/06 06:57:02;;;;;;;1.75;0.30;;;16.90;99.90;;;;;;5038859;28;20526;-74
2022/07/06 06:59:28;;;;;;;3.35;0.30;;;17.00;99.90;;;;;;5047809;28;20029;-74
2022/07/06 07:01:53;;;;;;;1.83;0.30;;;17.00;99.90;;;;;;5041011;28;20386;-74
2022/07/06 07:04:19;;;;;;;4.80;0.20;;;16.90;99.90;;;;;;5030905;28;20389;-74
2022/07/06 07:06:44;;;;;;;3.53;0.20;;;16.80;99.90;;;;;;5037084;28;20412;-74
2022/07/06 07:09:10;;;;;;;2.80;0.20;;;16.90;99.90;;;;;;5045720;28;20029;-74
2022/07/06 07:11:35;;;;;;;1.25;0.28;;;17.00;99.90;;;;;;5031976;28;20045;-74
2022/07/06 07:14:01;;;;;;;3.10;0.20;;;17.10;99.90;;;;;;5042524;28;20381;-75
2022/07/06 07:16:27;;;;;;;3.42;0.30;;;17.30;99.90;;;;;;5032025;28;20112;-74
2022/07/06 07:18:53;;;;;;;1.30;0.20;;;17.40;99.90;;;;;;5033893;28;20114;-73
2022/07/06 07:21:18;;;;;;;1.75;0.20;;;17.50;99.90;;;;;;5032187;28;20374;-74
2022/07/06 07:23:44;;;;;;;3.42;0.20;;;17.50;99.90;;;;;;5032362;28;20603;-74
2022/07/06 07:26:10;;;;;;;1.85;0.20;;;17.50;99.90;;;;;;5036630;28;20130;-74
2022/07/06 07:28:35;;;;;;;3.33;0.30;;;17.60;99.90;;;;;;5031537;28;20505;-74
2022/07/06 07:31:01;;;;;;;3.15;0.20;;;17.80;99.90;;;;;;5041918;28;20396;-74
2022/07/06 07:33:27;;;;;;;2.17;0.30;;;17.90;99.90;;;;;;5038501;28;20032;-74
2022/07/06 07:35:52;;;;;;;1.50;0.50;;;17.90;99.90;;;;;;5032568;28;20036;-74
2022/07/06 07:38:18;;;;;;;2.72;0.10;;;17.70;99.90;;;;;;5035160;28;20160;-75
2022/07/06 07:40:43;;;;;;;2.75;0.20;;;17.60;99.90;;;;;;5034433;28;20114;-75
2022/07/06 07:43:09;;;;;;;1.48;0.20;;;17.70;99.90;;;;;;5030204;28;20061;-75
2022/07/06 07:45:34;;;;;;;3.03;0.20;;;17.90;99.90;;;;;;5042092;28;20354;-74
2022/07/06 07:48:00;;;;;;;3.08;0.20;;;17.90;99.90;;;;;;5041211;28;20033;-73
2022/07/06 07:50:26;;;;;;;1.90;0.13;;;18.00;99.90;;;;;;5030427;28;20034;-73
2022/07/06 07:52:52;;;;;;;2.33;0.20;;;18.20;99.90;;;;;;5039904;28;20131;-73
2022/07/06 07:55:18;;;;;;;1.90;0.10;;;18.30;99.90;;;;;;5039978;28;20100;-73
2022/07/06 07:57:43;;;;;;;2.08;0.10;;;18.50;99.80;;;;;;5044846;28;20018;-73
2022/07/06 08:00:10;;;;;;;2.75;0.20;;;18.60;99.60;;;;;;5032741;28;20072;-74
2022/07/06 08:02:35;;;;;;;2.72;0.10;;;18.70;99.30;;;;;;5031143;28;20033;-74
2022/07/06 08:05:01;;;;;;;1.77;0.20;;;18.80;98.90;;;;;;5050750;28;20477;-74
2022/07/06 08:07:27;;;;;;;1.85;0.10;;;18.70;98.50;;;;;;5035525;28;20109;-74
2022/07/06 08:09:52;;;;;;;0.85;0.10;;;18.50;98.40;;;;;;5033841;28;20059;-75
2022/07/06 08:12:18;;;;;;;1.98;0.10;;;18.50;98.40;;;;;;5034171;28;20090;-75
2022/07/06 08:14:43;;;;;;;3.72;0.10;;;18.50;98.10;;;;;;5046496;28;20178;-75
2022/07/06 08:17:09;;;;;;;1.70;0.10;;;18.70;98.00;;;;;;5048244;28;20035;-75
2022/07/06 08:19:34;;;;;;;0.50;0.00;;;18.80;97.90;;;;;;5039408;28;20029;-75
2022/07/06 08:22:00;;;;;;;1.40;0.10;;;19.00;97.30;;;;;;5045590;28;20025;-75
2022/07/06 08:24:25;;;;;;;1.83;0.10;;;19.00;96.40;;;;;;5030923;28;20021;-75
2022/07/06 08:26:51;;;;;;;0.93;0.10;;;18.90;96.30;;;;;;5033699;28;20021;-75
2022/07/06 08:29:16;;;;;;;0.80;0.10;;;18.80;96.70;;;;;;5038175;28;20017;-75
2022/07/06 08:31:42;;;;;;;2.10;0.10;;;18.90;96.30;;;;;;5042165;28;20396;-75
2022/07/06 08:34:07;;;;;;;1.98;0.10;;;19.00;95.60;;;;;;5034960;28;20026;-75
2022/07/06 08:36:33;;;;;;;1.90;0.10;;;19.10;95.30;;;;;;5033803;28;20436;-75
2022/07/06 08:38:59;;;;;;;1.98;0.10;;;19.20;95.10;;;;;;5052702;28;20053;-75
2022/07/06 08:41:28;;;;;;;0.57;0.00;;;19.30;94.40;;;;;;5044935;28;20474;-75
2022/07/06 08:43:53;;;;;;;1.38;0.10;;;19.40;93.90;;;;;;5033270;28;20048;-75
2022/07/06 08:46:20;;;;;;;1.38;0.10;;;19.60;93.30;;;;;;5043540;28;20484;-74
2022/07/06 08:48:47;;;;;;;0.32;0.00;;;19.70;92.60;;;;;;5051093;28;20021;-75
2022/07/06 08:51:13;;;;;;;2.72;0.10;;;19.80;92.40;;;;;;5044531;28;20060;-75
2022/07/06 08:53:41;;;;;;;1.45;0.10;;;19.90;92.40;;;;;;5039966;28;20033;-75
2022/07/06 08:56:07;;;;;;;1.58;0.10;;;20.00;92.00;;;;;;5053249;28;20048;-75
2022/07/06 08:58:34;;;;;;;2.58;0.05;;;20.20;91.90;;;;;;5033726;28;20382;-74
2022/07/06 09:01:00;;;;;;;1.85;0.10;;;20.40;91.90;;;;;;5033742;28;20583;-75
2022/07/06 09:03:26;;;;;;;0.63;0.05;;;20.60;91.00;;;;;;5052139;28;20112;-75
2022/07/06 09:05:55;;;;;;;2.33;0.15;;;20.40;90.50;;;;;;5042019;28;20393;-75
2022/07/06 09:08:24;;;;;;;0.50;0.10;;;20.20;90.40;;;;;;5034196;28;20353;-75
2022/07/06 09:10:49;;;;;;;1.30;0.10;;;20.10;90.40;;;;;;5041267;28;20049;-75
2022/07/06 09:13:15;;;;;;;0.75;0.10;;;20.30;90.10;;;;;;5045192;28;20018;-75
2022/07/06 09:15:41;;;;;;;1.08;0.08;;;20.60;89.50;;;;;;5051607;28;20098;-75
2022/07/06 09:18:07;;;;;;;0.30;0.00;;;20.80;88.10;;;;;;5047287;28;20068;-75
2022/07/06 09:20:33;;;;;;;0.55;0.00;;;21.10;87.30;;;;;;5036365;28;20030;-75
2022/07/06 09:23:00;;;;;;;2.28;0.20;;;21.00;85.90;;;;;;5044130;28;20036;-75
2022/07/06 09:25:26;;;;;;;3.05;0.10;;;20.90;85.40;;;;;;5044501;28;20513;-76
2022/07/06 09:27:55;;;;;;;4.03;0.10;;;20.80;85.30;;;;;;5041176;28;20063;-75
2022/07/06 09:30:22;;;;;;;0.63;0.10;;;20.70;85.60;;;;;;5032918;28;20041;-73
2022/07/06 09:32:50;;;;;;;0.95;0.10;;;20.70;84.70;;;;;;5032821;28;20545;-75
2022/07/06 09:35:29;;;;;;;0.60;0.08;;;20.80;84.30;;;;;;5032854;28;20040;-74
2022/07/06 09:38:07;;;;;;;1.75;0.30;;;21.10;82.90;;;;;;5035378;28;20038;-74
2022/07/06 09:40:36;;;;;;;1.10;0.10;;;21.20;82.60;;;;;;5041770;28;20023;-74
2022/07/06 09:43:27;;;;;;;3.15;0.10;;;21.40;82.20;;;;;;5032532;28;20037;-74
2022/07/06 09:45:55;;;;;;;2.50;0.13;;;21.40;81.00;;;;;;5041677;28;20035;-74
2022/07/06 09:48:27;;;;;;;1.80;0.13;;;21.10;80.90;;;;;;5042223;28;20052;-75
2022/07/06 09:50:57;;;;;;;;;;;20.90;81.70;;;;;;5050988;28;20562;-74
2022/07/06 09:53:24;;;;;;;2.67;0.20;;;20.90;82.40;;;;;;5047427;28;19913;-74
2022/07/06 09:55:52;;;;;;;1.35;0.10;;;21.10;81.90;;;;;;5034322;28;20037;-74
2022/07/06 09:58:18;;;;;;;0.30;0.10;;;21.30;80.60;;;;;;5035335;28;20121;-74
2022/07/06 10:00:49;;;;;;;1.98;0.08;;;21.40;79.50;;;;;;5032219;28;20022;-74
2022/07/06 10:03:15;;;;;;;2.00;0.10;;;21.80;78.80;;;;;;5033143;28;20022;-75
2022/07/06 10:05:43;;;;;;;3.17;0.05;;;22.00;78.00;;;;;;5034753;28;20033;-74
2022/07/06 10:08:09;;;;;;;1.38;0.20;;;22.10;78.00;;;;;;5038787;28;20079;-75
2022/07/06 10:10:38;;;;;;;0.70;0.05;;;22.10;76.90;;;;;;5047690;28;20037;-74
2022/07/06 10:13:07;;;;;;;2.13;0.10;;;22.10;76.00;;;;;;5041104;28;20028;-74
2022/07/06 10:15:34;;;;;;;1.65;0.13;;;22.00;75.70;;;;;;5043685;28;20022;-73
2022/07/06 10:18:02;;;;;;;1.30;0.00;;;22.00;74.90;;;;;;5032374;28;20133;-74
2022/07/06 10:20:31;;;;;;;1.00;0.10;;;21.90;74.00;;;;;;5040522;28;20029;-73
2022/07/06 10:22:59;;;;;;;1.52;0.10;;;22.00;73.90;;;;;;5044690;28;20035;-74
2022/07/06 10:25:26;;;;;;;2.03;0.10;;;22.00;73.80;;;;;;5043413;28;20025;-74
2022/07/06 10:27:52;;;;;;;0.80;0.08;;;22.00;73.90;;;;;;5031768;28;20389;-74
2022/07/06 10:30:18;;;;;;;1.92;0.03;;;22.10;73.60;;;;;;5047252;28;20032;-74
2022/07/06 10:32:47;;;;;;;0.77;0.00;;;22.20;72.70;;;;;;5043065;28;20022;-74
2022/07/06 10:35:14;;;;;;;1.30;0.10;;;22.20;72.10;;;;;;5044094;28;20025;-75
2022/07/06 10:37:40;;;;;;;1.38;0.10;;;22.20;72.50;;;;;;5031362;28;20395;-75
2022/07/06 10:43:02;;;;;;;1.60;0.20;;;22.60;71.90;;;;;;5038340;28;21063;-73
2022/07/06 10:45:27;;;;;;;1.60;0.10;;;22.60;70.90;;;;;;5031522;28;20091;-73
2022/07/06 10:48:17;;;;;;;1.83;0.10;;;22.70;71.40;;;;;;5043770;28;20025;-74
2022/07/06 10:50:54;;;;;;;0.70;0.10;;;22.80;71.10;;;;;;5047904;28;20562;-74
2022/07/06 10:53:25;;;;;;;1.05;0.13;;;22.70;71.40;;;;;;5036597;28;20033;-74
2022/07/06 10:55:55;;;;;;;1.00;0.17;;;22.50;71.40;;;;;;5036735;28;20032;-75
2022/07/06 10:58:43;;;;;;;1.58;0.10;;;22.50;71.80;;;;;;5037301;28;20040;-74
2022/07/06 11:01:11;;;;;;;2.40;0.20;;;22.50;71.10;;;;;;5031779;28;20065;-74
2022/07/06 11:03:44;;;;;;;1.13;0.10;;;22.30;71.70;;;;;;5035681;28;20056;-75
2022/07/06 11:06:24;;;;;;;1.65;0.22;;;22.20;71.60;;;;;;5032002;28;20041;-74
2022/07/06 11:08:54;;;;;;;2.28;0.10;;;22.00;71.80;;;;;;5030987;28;20025;-74
2022/07/06 11:11:35;;;;;;;0.60;0.05;;;21.90;72.70;;;;;;5038660;28;20029;-75
2022/07/06 11:14:16;;;;;;;3.55;0.20;;;22.10;72.70;;;;;;5044103;28;20120;-74
2022/07/06 11:16:47;;;;;;;2.13;0.10;;;22.20;72.80;;;;;;5037514;28;20033;-75
2022/07/06 11:19:20;;;;;;;0.85;0.10;;;22.30;73.30;;;;;;5030280;28;20028;-75
2022/07/06 11:21:59;;;;;;;1.33;0.20;;;22.60;71.90;;;;;;5031019;28;20044;-74
2022/07/06 11:24:27;;;;;;;0.85;0.10;;;22.70;70.50;;;;;;5030315;28;20173;-74
2022/07/06 11:26:54;;;;;;;1.40;0.17;;;22.60;70.40;;;;;;5042442;28;20034;-75
2022/07/06 11:29:22;;;;;;;3.42;0.10;;;22.50;70.50;;;;;;5042813;28;20045;-74
2022/07/06 11:31:52;;;;;;;1.20;0.15;;;22.50;70.70;;;;;;5043888;28;20037;-75
2022/07/06 11:34:24;;;;;;;0.80;0.10;;;22.50;70.10;;;;;;5043362;28;20021;-74
2022/07/06 11:36:54;;;;;;;;;;;22.40;70.20;;;;;;5049445;28;20060;-75
2022/07/06 11:39:19;;;;;;;1.92;0.10;;;22.40;70.80;;;;;;5042790;28;19931;-75
2022/07/06 11:41:45;;;;;;;2.63;0.10;;;22.50;70.50;;;;;;5038440;28;20025;-75
2022/07/06 11:44:11;;;;;;;1.85;0.20;;;22.50;70.10;;;;;;5037986;28;20031;-76
2022/07/06 11:46:37;;;;;;;0.70;0.10;;;22.50;69.10;;;;;;5043881;28;20120;-75
2022/07/06 11:49:05;;;;;;;1.55;0.20;;;22.50;69.10;;;;;;5036456;28;20116;-74
2022/07/06 11:51:33;;;;;;;3.03;0.22;;;22.50;68.80;;;;;;5035534;28;20478;-75
2022/07/06 11:54:01;;;;;;;0.60;0.08;;;22.40;68.60;;;;;;5034957;28;20075;-75
2022/07/06 11:56:28;;;;;;;2.33;0.10;;;22.50;68.30;;;;;;5034813;28;20022;-75
2022/07/06 11:58:57;;;;;;;1.67;0.10;;;22.60;68.50;;;;;;5033873;28;20026;-76
2022/07/06 12:01:27;;;;;;;0.88;0.10;;;22.70;68.40;;;;;;5036340;28;20037;-75
2022/07/06 12:03:56;;;;;;;0.95;0.10;;;23.00;68.40;;;;;;5034346;28;20029;-75
2022/07/06 12:06:25;;;;;;;1.45;0.10;;;23.20;68.30;;;;;;5033906;28;20049;-75
2022/07/06 12:08:52;;;;;;;1.65;0.10;;;23.20;67.60;;;;;;5037521;28;20095;-76
2022/07/06 12:11:21;;;;;;;2.13;0.10;;;23.10;66.90;;;;;;5045227;28;20037;-75
2022/07/06 12:13:46;;;;;;;1.48;0.10;;;23.00;66.40;;;;;;5034465;28;20450;-75
2022/07/06 12:16:15;;;;;;;3.10;0.10;;;22.90;66.80;;;;;;5035996;28;20076;-75
2022/07/06 12:18:42;;;;;;;1.65;0.10;;;22.70;66.70;;;;;;5033668;28;20076;-75
2022/07/06 12:21:10;;;;;;;1.13;0.10;;;22.60;68.30;;;;;;5035817;28;20028;-76
2022/07/06 12:23:47;;;;;;;2.95;0.10;;;22.70;68.20;;;;;;5038671;28;20112;-75
2022/07/06 12:26:17;;;;;;;1.35;0.03;;;22.80;67.60;;;;;;5033988;28;20026;-75
2022/07/06 12:28:44;;;;;;;2.38;0.10;;;23.00;67.10;;;;;;5053313;28;20020;-75
2022/07/06 12:31:10;;;;;;;1.85;0.10;;;23.10;67.20;;;;;;5039851;28;20056;-75
2022/07/06 12:33:36;;;;;;;1.27;0.00;;;23.30;66.10;;;;;;5037447;28;20036;-74
2022/07/06 12:36:15;;;;;;;1.00;0.13;;;23.30;66.50;;;;;;5034517;28;20059;-73
2022/07/06 12:38:45;;;;;;;2.83;0.10;;;23.50;65.30;;;;;;5033586;28;20124;-75
2022/07/06 12:41:25;;;;;;;0.70;0.10;;;23.60;65.20;;;;;;5033535;28;20057;-74
2022/07/06 12:44:04;;;;;;;1.45;0.10;;;23.80;64.60;;;;;;5034189;28;20029;-74
2022/07/06 12:46:35;;;;;;;1.27;0.10;;;23.80;64.10;;;;;;5051766;28;20037;-74
2022/07/06 12:49:04;;;;;;;0.93;0.17;;;24.00;64.00;;;;;;5047963;28;20032;-74
2022/07/06 12:51:47;;;;;;;0.82;0.03;;;24.10;64.20;;;;;;5040678;28;20049;-75
2022/07/06 12:54:15;;;;;;;0.82;0.10;;;24.20;63.80;;;;;;5033788;28;20017;-75